createdAt,value
2022-11-28T00:02:19.199Z,6.80
2022-11-28T00:04:42.606Z,6.80
2022-11-28T00:07:07.870Z,6.80
2022-11-28T00:09:31.563Z,6.80
2022-11-28T00:11:55.012Z,6.80
2022-11-28T00:14:20.440Z,6.80
2022-11-28T00:16:44.215Z,6.80
2022-11-28T00:19:08.069Z,6.80
2022-11-28T00:21:32.114Z,6.80
2022-11-28T00:23:56.929Z,6.80
2022-11-28T00:26:23.802Z,6.80
2022-11-28T00:28:47.432Z,6.80
2022-11-28T00:31:15.005Z,6.80
2022-11-28T00:33:38.445Z,6.90
2022-11-28T00:36:03.097Z,6.90
2022-11-28T00:38:26.418Z,6.80
2022-11-28T00:40:59.764Z,6.90
2022-11-28T00:43:23.024Z,6.90
2022-11-28T00:45:46.336Z,6.90
2022-11-28T00:48:09.675Z,6.80
2022-11-28T00:50:32.910Z,6.80
2022-11-28T00:52:56.162Z,6.80
2022-11-28T00:55:19.604Z,6.80
2022-11-28T00:57:44.204Z,6.80
2022-11-28T01:00:10.136Z,6.80
2022-11-28T01:02:34.121Z,6.80
2022-11-28T01:04:57.447Z,6.80
2022-11-28T01:07:20.814Z,6.80
2022-11-28T01:09:44.179Z,6.80
2022-11-28T01:12:07.797Z,6.90
2022-11-28T01:14:32.528Z,6.90
2022-11-28T01:16:55.778Z,6.90
2022-11-28T01:19:19.939Z,6.90
2022-11-28T01:21:43.671Z,6.90
2022-11-28T01:24:07.622Z,6.90
2022-11-28T01:26:31.866Z,6.90
2022-11-28T01:28:56.061Z,6.90
2022-11-28T01:31:24.468Z,6.90
2022-11-28T01:33:48.184Z,6.90
2022-11-28T01:36:12.724Z,6.90
2022-11-28T01:38:36.335Z,6.90
2022-11-28T01:41:00.041Z,6.90
2022-11-28T01:43:24.469Z,6.90
2022-11-28T01:45:48.042Z,6.90
2022-11-28T01:48:17.123Z,6.90
2022-11-28T01:50:41.049Z,6.90
2022-11-28T01:53:09.874Z,6.90
2022-11-28T01:55:40.390Z,6.90
2022-11-28T01:58:03.865Z,6.90
2022-11-28T02:00:27.245Z,6.90
2022-11-28T02:02:54.053Z,6.90
2022-11-28T02:05:21.998Z,7.00
2022-11-28T02:07:45.983Z,7.00
2022-11-28T02:10:13.686Z,7.00
2022-11-28T02:13:02.434Z,7.00
2022-11-28T02:15:50.647Z,7.00
2022-11-28T02:18:32.285Z,7.00
2022-11-28T02:21:25.143Z,6.90
2022-11-28T02:24:41.383Z,6.90
2022-11-28T02:27:59.366Z,6.90
2022-11-28T02:30:25.813Z,6.90
2022-11-28T02:33:16.275Z,6.90
2022-11-28T02:35:49.319Z,6.90
2022-11-28T02:38:24.056Z,6.90
2022-11-28T02:41:00.894Z,6.80
2022-11-28T02:43:32.813Z,6.90
2022-11-28T02:46:04.525Z,6.80
2022-11-28T02:48:38.939Z,6.80
2022-11-28T02:51:08.258Z,6.80
2022-11-28T02:53:34.133Z,6.80
2022-11-28T02:55:59.245Z,6.80
2022-11-28T02:58:22.513Z,6.80
2022-11-28T03:00:50.361Z,6.80
2022-11-28T03:03:39.552Z,6.80
2022-11-28T03:06:12.200Z,6.80
2022-11-28T03:08:53.680Z,6.70
2022-11-28T03:11:24.484Z,6.70
2022-11-28T03:13:56.061Z,6.80
2022-11-28T03:16:28.500Z,6.70
2022-11-28T03:19:03.065Z,6.70
2022-11-28T03:21:39.602Z,6.80
2022-11-28T03:24:08.234Z,6.70
2022-11-28T03:26:43.680Z,6.70
2022-11-28T03:29:14.734Z,6.60
2022-11-28T03:31:42.877Z,6.60
2022-11-28T03:34:11.816Z,6.60
2022-11-28T03:36:41.445Z,6.70
2022-11-28T03:39:11.064Z,6.60
2022-11-28T03:41:38.885Z,6.60
2022-11-28T03:44:03.348Z,6.60
2022-11-28T03:46:36.023Z,6.60
2022-11-28T03:49:01.904Z,6.50
2022-11-28T03:51:32.189Z,6.50
2022-11-28T03:54:01.028Z,6.50
2022-11-28T03:56:31.909Z,6.50
2022-11-28T03:59:01.105Z,6.50
2022-11-28T04:01:33.416Z,6.50
2022-11-28T04:04:04.703Z,6.50
2022-11-28T04:06:37.050Z,6.50
2022-11-28T04:09:10.184Z,6.60
2022-11-28T04:11:44.502Z,6.50
2022-11-28T04:14:14.386Z,6.50
2022-11-28T04:16:42.132Z,6.50
2022-11-28T04:19:14.157Z,6.50
2022-11-28T04:21:45.807Z,6.50
2022-11-28T04:24:15.551Z,6.50
2022-11-28T04:26:42.665Z,6.50
2022-11-28T04:29:11.845Z,6.50
2022-11-28T04:31:36.415Z,6.50
2022-11-28T04:34:05.060Z,6.50
2022-11-28T04:36:30.355Z,6.50
2022-11-28T04:38:58.203Z,6.50
2022-11-28T04:41:25.927Z,6.50
2022-11-28T04:43:54.337Z,6.50
2022-11-28T04:46:25.083Z,6.50
2022-11-28T04:48:48.719Z,6.50
2022-11-28T04:51:20.919Z,6.50
2022-11-28T04:53:51.149Z,6.50
2022-11-28T04:56:21.698Z,6.50
2022-11-28T04:58:49.498Z,6.50
2022-11-28T05:01:20.479Z,6.50
2022-11-28T05:03:44.439Z,6.50
2022-11-28T05:06:09.071Z,6.50
2022-11-28T05:08:32.682Z,6.50
2022-11-28T05:10:56.250Z,6.40
2022-11-28T05:13:21.305Z,6.50
2022-11-28T05:15:44.591Z,6.50
2022-11-28T05:18:08.344Z,6.50
2022-11-28T05:20:32.086Z,6.40
2022-11-28T05:22:55.367Z,6.40
2022-11-28T05:25:18.855Z,6.40
2022-11-28T05:27:42.348Z,6.40
2022-11-28T05:30:09.127Z,6.40
2022-11-28T05:32:33.201Z,6.40
2022-11-28T05:34:56.539Z,6.40
2022-11-28T05:37:19.960Z,6.40
2022-11-28T05:39:43.300Z,6.40
2022-11-28T05:42:07.317Z,6.40
2022-11-28T05:44:30.601Z,6.40
2022-11-28T05:46:55.543Z,6.40
2022-11-28T05:49:20.901Z,6.40
2022-11-28T05:51:44.300Z,6.40
2022-11-28T05:54:07.977Z,6.40
2022-11-28T05:56:31.359Z,6.40
2022-11-28T05:58:54.958Z,6.40
2022-11-28T06:01:20.286Z,6.40
2022-11-28T06:03:45.659Z,6.40
2022-11-28T06:06:14.237Z,6.40
2022-11-28T06:08:37.485Z,6.40
2022-11-28T06:11:01.088Z,6.40
2022-11-28T06:13:24.392Z,6.40
2022-11-28T06:15:47.634Z,6.40
2022-11-28T06:18:11.517Z,6.30
2022-11-28T06:20:37.532Z,6.30
2022-11-28T06:23:00.919Z,6.40
2022-11-28T06:25:24.194Z,6.40
2022-11-28T06:27:47.428Z,6.40
2022-11-28T06:30:11.338Z,6.30
2022-11-28T06:32:34.686Z,6.40
2022-11-28T06:34:57.936Z,6.40
2022-11-28T06:37:22.885Z,6.40
2022-11-28T06:39:46.402Z,6.40
2022-11-28T06:42:09.721Z,6.40
2022-11-28T06:44:33.084Z,6.40
2022-11-28T06:46:56.378Z,6.40
2022-11-28T06:49:19.678Z,6.30
2022-11-28T06:51:45.792Z,6.40
2022-11-28T06:54:10.793Z,6.30
2022-11-28T06:56:34.438Z,6.40
2022-11-28T06:58:59.580Z,6.40
2022-11-28T07:01:26.743Z,6.40
2022-11-28T07:03:50.697Z,6.40
2022-11-28T07:06:15.793Z,6.40
2022-11-28T07:08:39.652Z,6.40
2022-11-28T07:11:12.630Z,6.50
2022-11-28T07:13:35.937Z,6.40
2022-11-28T07:15:59.162Z,6.40
2022-11-28T07:18:22.492Z,6.40
2022-11-28T07:20:45.707Z,6.50
2022-11-28T07:23:09.019Z,6.50
2022-11-28T07:25:32.623Z,6.50
2022-11-28T07:27:57.261Z,6.50
2022-11-28T07:30:21.071Z,6.50
2022-11-28T07:32:44.369Z,6.50
2022-11-28T07:35:09.197Z,6.50
2022-11-28T07:37:32.783Z,6.50
2022-11-28T07:39:56.081Z,6.50
2022-11-28T07:42:19.481Z,6.50
2022-11-28T07:45:00.789Z,6.50
2022-11-28T07:47:24.549Z,6.50
2022-11-28T07:49:47.778Z,6.50
2022-11-28T07:52:11.214Z,6.50
2022-11-28T07:54:34.481Z,6.50
2022-11-28T07:57:12.003Z,6.50
2022-11-28T07:59:36.491Z,6.60
2022-11-28T08:02:01.244Z,6.60
2022-11-28T08:04:24.698Z,6.60
2022-11-28T08:06:48.033Z,6.60
2022-11-28T08:09:12.713Z,6.70
2022-11-28T08:11:36.635Z,6.70
2022-11-28T08:14:00.143Z,6.60
2022-11-28T08:16:25.248Z,6.60
2022-11-28T08:18:52.398Z,6.70
2022-11-28T08:21:18.607Z,6.70
2022-11-28T08:23:42.520Z,6.60
2022-11-28T08:26:07.856Z,6.60
2022-11-28T08:28:31.913Z,6.70
2022-11-28T08:30:56.712Z,6.70
2022-11-28T08:33:20.234Z,6.70
2022-11-28T08:35:44.872Z,6.80
2022-11-28T08:38:08.098Z,6.80
2022-11-28T08:40:31.488Z,6.70
2022-11-28T08:42:54.780Z,6.70
2022-11-28T08:45:18.264Z,6.80
2022-11-28T08:47:41.498Z,6.80
2022-11-28T08:50:08.940Z,6.80
2022-11-28T08:52:34.622Z,6.80
2022-11-28T08:54:57.921Z,6.80
2022-11-28T08:57:21.142Z,6.80
2022-11-28T08:59:44.688Z,6.80
2022-11-28T09:02:10.234Z,6.80
2022-11-28T09:04:33.619Z,6.80
2022-11-28T09:06:56.858Z,6.80
2022-11-28T09:09:21.830Z,6.90
2022-11-28T09:11:45.364Z,6.80
2022-11-28T09:14:09.183Z,6.80
2022-11-28T09:16:32.527Z,6.90
2022-11-28T09:18:57.435Z,7.00
2022-11-28T09:21:20.777Z,6.90
2022-11-28T09:23:45.797Z,6.90
2022-11-28T09:26:11.932Z,6.90
2022-11-28T09:28:35.225Z,6.90
2022-11-28T09:31:02.662Z,7.00
2022-11-28T09:33:26.115Z,6.90
2022-11-28T09:35:49.434Z,6.90
2022-11-28T09:38:12.711Z,6.90
2022-11-28T09:40:39.376Z,6.90
2022-11-28T09:43:05.738Z,6.90
2022-11-28T09:45:29.010Z,6.90
2022-11-28T09:47:57.747Z,6.90
2022-11-28T09:50:24.933Z,6.80
2022-11-28T09:52:55.137Z,6.90
2022-11-28T09:55:29.214Z,7.00
2022-11-28T09:57:54.703Z,6.90
2022-11-28T10:00:22.768Z,7.00
2022-11-28T10:03:09.844Z,7.00
2022-11-28T10:05:39.128Z,7.00
2022-11-28T10:08:20.093Z,7.00
2022-11-28T10:10:56.147Z,7.00
2022-11-28T10:13:29.669Z,7.10
2022-11-28T10:16:07.637Z,7.10
2022-11-28T10:18:39.668Z,7.00
2022-11-28T10:21:09.879Z,7.00
2022-11-28T10:23:40.884Z,7.10
2022-11-28T10:26:09.333Z,7.10
2022-11-28T10:28:36.333Z,7.10
2022-11-28T10:31:07.014Z,7.10
2022-11-28T10:33:35.596Z,7.20
2022-11-28T10:36:01.254Z,7.20
2022-11-28T10:38:28.540Z,7.20
2022-11-28T10:40:59.921Z,7.20
2022-11-28T10:43:33.618Z,7.20
2022-11-28T10:46:10.469Z,7.20
2022-11-28T10:48:47.693Z,7.20
2022-11-28T10:51:30.838Z,7.30
2022-11-28T10:54:11.372Z,7.30
2022-11-28T10:56:44.936Z,7.40
2022-11-28T10:59:22.185Z,7.40
2022-11-28T11:01:50.357Z,7.40
2022-11-28T11:04:20.615Z,7.50
2022-11-28T11:07:06.940Z,7.50
2022-11-28T11:09:27.465Z,7.50
2022-11-28T11:12:00.839Z,7.50
2022-11-28T11:14:36.081Z,7.60
2022-11-28T11:17:00.869Z,7.50
2022-11-28T11:19:29.913Z,7.50
2022-11-28T11:22:04.417Z,7.50
2022-11-28T11:24:27.971Z,7.50
2022-11-28T11:26:51.428Z,7.50
2022-11-28T11:29:25.706Z,7.50
2022-11-28T11:31:53.156Z,7.50
2022-11-28T11:34:21.261Z,7.50
2022-11-28T11:36:44.621Z,7.50
2022-11-28T11:39:20.308Z,7.50
2022-11-28T11:41:45.931Z,7.50
2022-11-28T11:44:34.117Z,7.50
2022-11-28T11:47:01.769Z,7.50
2022-11-28T11:49:36.009Z,7.50
2022-11-28T11:52:02.127Z,7.50
2022-11-28T11:54:25.445Z,7.40
2022-11-28T11:57:05.761Z,7.40
2022-11-28T11:59:41.264Z,7.40
2022-11-28T12:02:27.565Z,7.40
2022-11-28T12:05:02.495Z,7.50
2022-11-28T12:07:33.669Z,7.50
2022-11-28T12:10:04.190Z,7.50
2022-11-28T12:12:30.858Z,7.50
2022-11-28T12:14:54.128Z,7.50
2022-11-28T12:17:58.291Z,7.50
2022-11-28T12:20:37.750Z,7.50
2022-11-28T12:23:17.681Z,7.50
2022-11-28T12:25:50.171Z,7.40
2022-11-28T12:28:23.786Z,7.40
2022-11-28T12:31:00.117Z,7.40
2022-11-28T12:33:40.984Z,7.40
2022-11-28T12:36:18.123Z,7.50
2022-11-28T12:39:01.607Z,7.40
2022-11-28T12:42:28.754Z,7.50
2022-11-28T12:45:20.553Z,7.50
2022-11-28T12:47:55.071Z,7.50
2022-11-28T12:50:33.296Z,7.50
2022-11-28T12:53:14.367Z,7.60
2022-11-28T12:55:47.996Z,7.50
2022-11-28T12:58:22.271Z,7.60
2022-11-28T13:00:55.743Z,7.50
2022-11-28T13:03:36.309Z,7.60
2022-11-28T13:06:15.591Z,7.50
2022-11-28T13:08:59.584Z,7.60
2022-11-28T13:11:40.066Z,7.50
2022-11-28T13:14:11.612Z,7.60
2022-11-28T13:16:44.385Z,7.70
2022-11-28T13:19:19.342Z,7.70
2022-11-28T13:21:50.833Z,7.60
2022-11-28T13:24:26.300Z,7.60
2022-11-28T13:26:58.947Z,7.70
2022-11-28T13:29:33.146Z,7.70
2022-11-28T13:32:06.018Z,7.60
2022-11-28T13:34:31.368Z,7.60
2022-11-28T13:39:54.049Z,7.70
2022-11-28T13:45:28.372Z,7.70
2022-11-28T13:47:55.686Z,7.70
2022-11-28T13:50:42.440Z,7.70
2022-11-28T13:53:23.346Z,7.70
2022-11-28T13:55:50.217Z,7.80
2022-11-28T13:58:22.313Z,7.80
2022-11-28T14:01:07.533Z,7.80
2022-11-28T14:03:33.908Z,7.80
2022-11-28T14:06:01.627Z,7.90
2022-11-28T14:08:31.230Z,7.80
2022-11-28T14:11:37.797Z,7.80
2022-11-28T14:14:26.708Z,7.90
2022-11-28T14:17:10.090Z,7.80
2022-11-28T14:19:53.762Z,7.90
2022-11-28T14:22:33.831Z,7.90
2022-11-28T14:25:04.542Z,7.90
2022-11-28T14:27:34.344Z,7.80
2022-11-28T14:29:59.404Z,7.90
2022-11-28T14:32:34.501Z,7.90
2022-11-28T14:34:57.827Z,7.80
2022-11-28T14:37:58.931Z,7.90
2022-11-28T14:41:05.785Z,7.80
2022-11-28T14:43:31.594Z,7.80
2022-11-28T14:46:32.394Z,7.80
2022-11-28T14:49:20.314Z,7.80
2022-11-28T14:52:41.991Z,7.80
2022-11-28T14:55:18.975Z,7.90
2022-11-28T14:57:56.616Z,7.90
2022-11-28T15:00:27.798Z,7.90
2022-11-28T15:03:07.263Z,7.90
2022-11-28T15:05:41.424Z,7.90
2022-11-28T15:08:54.651Z,7.90
2022-11-28T15:11:35.146Z,7.90
2022-11-28T15:14:21.063Z,8.00
2022-11-28T15:16:50.876Z,8.00
2022-11-28T15:19:23.571Z,8.00
2022-11-28T15:21:49.466Z,8.00
2022-11-28T15:24:30.871Z,7.90
2022-11-28T15:26:57.617Z,8.00
2022-11-28T15:29:24.035Z,8.00
2022-11-28T15:31:52.073Z,8.00
2022-11-28T15:34:25.421Z,8.00
2022-11-28T15:36:52.928Z,8.00
2022-11-28T15:39:26.944Z,8.00
2022-11-28T15:41:50.341Z,8.00
2022-11-28T15:44:17.429Z,8.00
2022-11-28T15:46:40.888Z,8.10
2022-11-28T15:49:07.185Z,8.00
2022-11-28T15:51:34.196Z,8.00
2022-11-28T15:53:58.164Z,8.00
2022-11-28T15:56:21.592Z,8.10
2022-11-28T15:58:47.702Z,8.00
2022-11-28T16:01:17.849Z,8.10
2022-11-28T16:03:50.004Z,8.10
2022-11-28T16:06:15.141Z,8.10
2022-11-28T16:08:41.468Z,8.10
2022-11-28T16:11:07.589Z,8.20
2022-11-28T16:13:32.385Z,8.10
2022-11-28T16:15:58.419Z,8.20
2022-11-28T16:18:21.793Z,8.20
2022-11-28T16:20:45.459Z,8.20
2022-11-28T16:23:21.015Z,8.20
2022-11-28T16:25:44.686Z,8.20
2022-11-28T16:28:34.032Z,8.20
2022-11-28T16:30:57.423Z,8.10
2022-11-28T16:33:41.891Z,8.20
2022-11-28T16:36:19.737Z,8.10
2022-11-28T16:38:45.433Z,8.20
2022-11-28T16:41:17.983Z,8.20
2022-11-28T16:43:41.952Z,8.20
2022-11-28T16:46:08.972Z,8.20
2022-11-28T16:48:36.360Z,8.20
2022-11-28T16:51:36.514Z,8.20
2022-11-28T16:54:02.151Z,8.30
2022-11-28T16:56:27.388Z,8.30
2022-11-28T16:58:52.811Z,8.30
2022-11-28T17:01:16.132Z,8.30
2022-11-28T17:03:49.842Z,8.30
2022-11-28T17:06:28.587Z,8.30
2022-11-28T17:08:52.117Z,8.40
2022-11-28T17:11:19.960Z,8.40
2022-11-28T17:13:43.767Z,8.30
2022-11-28T17:16:09.879Z,8.40
2022-11-28T17:18:33.201Z,8.30
2022-11-28T17:20:56.489Z,8.40
2022-11-28T17:23:24.608Z,8.40
2022-11-28T17:25:47.946Z,8.40
2022-11-28T17:28:17.337Z,8.40
2022-11-28T17:30:44.201Z,8.40
2022-11-28T17:33:07.466Z,8.40
2022-11-28T17:35:35.005Z,8.40
2022-11-28T17:37:58.236Z,8.50
2022-11-28T17:40:36.782Z,8.50
2022-11-28T17:43:01.105Z,8.50
2022-11-28T17:45:26.873Z,8.50
2022-11-28T17:47:50.470Z,8.50
2022-11-28T17:50:13.902Z,8.50
2022-11-28T17:52:37.519Z,8.50
2022-11-28T17:55:06.942Z,8.50
2022-11-28T17:57:31.502Z,8.50
2022-11-28T17:59:54.822Z,8.50
2022-11-28T18:02:20.906Z,8.50
2022-11-28T18:04:44.301Z,8.50
2022-11-28T18:07:08.367Z,8.50
2022-11-28T18:09:31.606Z,8.50
2022-11-28T18:11:54.865Z,8.50
2022-11-28T18:14:19.816Z,8.50
2022-11-28T18:16:44.159Z,8.50
2022-11-28T18:19:08.941Z,8.50
2022-11-28T18:21:32.623Z,8.60
2022-11-28T18:23:55.947Z,8.60
2022-11-28T18:26:22.889Z,8.50
2022-11-28T18:28:46.779Z,8.60
2022-11-28T18:31:11.678Z,8.60
2022-11-28T18:33:35.763Z,8.60
2022-11-28T18:36:10.854Z,8.50
2022-11-28T18:38:35.117Z,8.60
2022-11-28T18:40:58.360Z,8.60
2022-11-28T18:43:21.626Z,8.60
2022-11-28T18:45:44.920Z,8.60
2022-11-28T18:48:08.670Z,8.70
2022-11-28T18:50:32.137Z,8.60
2022-11-28T18:52:56.878Z,8.60
2022-11-28T18:55:20.252Z,8.60
2022-11-28T18:57:43.713Z,8.60
2022-11-28T19:00:08.978Z,8.60
2022-11-28T19:02:33.482Z,8.60
2022-11-28T19:04:57.486Z,8.60
2022-11-28T19:07:21.047Z,8.60
2022-11-28T19:09:46.536Z,8.70
2022-11-28T19:12:10.303Z,8.70
2022-11-28T19:14:33.567Z,8.70
2022-11-28T19:16:56.981Z,8.70
2022-11-28T19:19:20.338Z,8.70
2022-11-28T19:21:45.323Z,8.70
2022-11-28T19:24:11.818Z,8.70
2022-11-28T19:26:38.024Z,8.80
2022-11-28T19:29:02.196Z,8.70
2022-11-28T19:31:28.195Z,8.70
2022-11-28T19:34:00.887Z,8.70
2022-11-28T19:36:27.173Z,8.70
2022-11-28T19:38:50.726Z,8.70
2022-11-28T19:41:16.963Z,8.70
2022-11-28T19:43:42.262Z,8.70
2022-11-28T19:46:06.730Z,8.70
2022-11-28T19:48:32.330Z,8.70
2022-11-28T19:50:57.002Z,8.70
2022-11-28T19:53:21.153Z,8.70
2022-11-28T19:55:45.407Z,8.70
2022-11-28T19:58:08.828Z,8.70
2022-11-28T20:00:33.489Z,8.60
2022-11-28T20:02:56.919Z,8.60
2022-11-28T20:05:20.254Z,8.70
2022-11-28T20:07:44.133Z,8.70
2022-11-28T20:10:10.409Z,8.70
2022-11-28T20:12:34.548Z,8.70
2022-11-28T20:14:57.835Z,8.70
2022-11-28T20:17:22.735Z,8.70
2022-11-28T20:19:46.413Z,8.70
2022-11-28T20:22:09.852Z,8.70
2022-11-28T20:24:33.154Z,8.70
2022-11-28T20:26:57.775Z,8.70
2022-11-28T20:29:26.583Z,8.80
2022-11-28T20:31:50.077Z,8.70
2022-11-28T20:34:17.053Z,8.70
2022-11-28T20:36:40.996Z,8.80
2022-11-28T20:39:06.082Z,8.80
2022-11-28T20:41:31.361Z,8.80
2022-11-28T20:43:54.852Z,8.80
2022-11-28T20:46:20.429Z,8.80
2022-11-28T20:48:44.060Z,8.70
2022-11-28T20:51:11.857Z,8.70
2022-11-28T20:53:36.560Z,8.70
2022-11-28T20:56:01.883Z,8.70
2022-11-28T20:58:25.147Z,8.70
2022-11-28T21:00:48.534Z,8.70
2022-11-28T21:03:11.813Z,8.60
2022-11-28T21:05:36.532Z,8.70
2022-11-28T21:08:01.235Z,8.60
2022-11-28T21:10:24.814Z,8.60
2022-11-28T21:12:48.080Z,8.60
2022-11-28T21:15:11.882Z,8.70
2022-11-28T21:17:35.220Z,8.70
2022-11-28T21:19:58.435Z,8.60
2022-11-28T21:22:21.777Z,8.50
2022-11-28T21:24:49.333Z,8.60
2022-11-28T21:27:12.774Z,8.60
2022-11-28T21:29:36.050Z,8.60
2022-11-28T21:32:00.000Z,8.60
2022-11-28T21:34:23.448Z,8.60
2022-11-28T21:36:47.028Z,8.60
2022-11-28T21:39:14.564Z,8.60
2022-11-28T21:41:39.171Z,8.70
2022-11-28T21:44:02.614Z,8.60
2022-11-28T21:46:27.068Z,8.60
2022-11-28T21:48:50.339Z,8.60
2022-11-28T21:51:18.164Z,8.60
2022-11-28T21:53:41.450Z,8.60
2022-11-28T21:56:06.650Z,8.60
2022-11-28T21:58:31.663Z,8.70
2022-11-28T22:00:59.056Z,8.60
2022-11-28T22:03:23.004Z,8.60
2022-11-28T22:05:46.377Z,8.60
2022-11-28T22:08:10.740Z,8.60
2022-11-28T22:10:34.057Z,8.60
2022-11-28T22:12:57.362Z,8.60
2022-11-28T22:15:22.792Z,8.60
2022-11-28T22:17:46.014Z,8.60
2022-11-28T22:20:11.540Z,8.60
2022-11-28T22:22:34.837Z,8.60
2022-11-28T22:24:58.851Z,8.60
2022-11-28T22:27:22.938Z,8.70
2022-11-28T22:29:46.611Z,8.60
2022-11-28T22:32:11.701Z,8.60
2022-11-28T22:34:39.659Z,8.60
2022-11-28T22:37:03.728Z,8.60
2022-11-28T22:39:27.346Z,8.60
2022-11-28T22:41:50.583Z,8.60
2022-11-28T22:44:14.025Z,8.60
2022-11-28T22:46:37.304Z,8.60
2022-11-28T22:49:03.078Z,8.60
2022-11-28T22:51:28.781Z,8.60
2022-11-28T22:53:54.314Z,8.60
2022-11-28T22:56:17.610Z,8.60
2022-11-28T22:58:43.683Z,8.60
2022-11-28T23:01:08.129Z,8.60
2022-11-28T23:03:31.489Z,8.60
2022-11-28T23:05:56.179Z,8.60
2022-11-28T23:08:19.545Z,8.60
2022-11-28T23:10:43.143Z,8.60
2022-11-28T23:13:06.479Z,8.60
2022-11-28T23:15:29.732Z,8.60
2022-11-28T23:17:52.968Z,8.60
2022-11-28T23:20:16.298Z,8.50
2022-11-28T23:22:40.918Z,8.60
2022-11-28T23:25:04.479Z,8.60
2022-11-28T23:27:29.982Z,8.50
2022-11-28T23:29:53.804Z,8.60
2022-11-28T23:32:17.209Z,8.60
2022-11-28T23:34:41.003Z,8.60
2022-11-28T23:37:04.480Z,8.50
2022-11-28T23:39:29.176Z,8.50
2022-11-28T23:42:00.019Z,8.50
2022-11-28T23:44:23.301Z,8.50
2022-11-28T23:46:47.100Z,8.50
2022-11-28T23:49:10.837Z,8.60
2022-11-28T23:51:34.318Z,8.60
2022-11-28T23:53:57.749Z,8.60
2022-11-28T23:56:24.436Z,8.50
2022-11-28T23:58:47.979Z,8.60
